createdAt,value
2023-04-27T00:03:23.876Z,8.20
2023-04-27T00:08:26.252Z,8.20
2023-04-27T00:13:28.295Z,8.10
2023-04-27T00:18:31.143Z,8.00
2023-04-27T00:23:33.241Z,7.90
2023-04-27T00:28:35.216Z,7.70
2023-04-27T00:33:37.479Z,7.70
2023-04-27T00:38:39.586Z,7.60
2023-04-27T00:43:43.362Z,7.50
2023-04-27T00:48:46.298Z,7.50
2023-04-27T00:53:48.979Z,7.40
2023-04-27T00:58:51.268Z,7.30
2023-04-27T01:03:53.721Z,7.20
2023-04-27T01:08:57.926Z,7.20
2023-04-27T01:14:03.151Z,7.10
2023-04-27T01:19:05.287Z,7.10
2023-04-27T01:29:12.048Z,7.00
2023-04-27T01:34:14.354Z,6.90
2023-04-27T01:39:16.539Z,6.80
2023-04-27T01:44:20.604Z,6.70
2023-04-27T01:49:22.704Z,6.70
2023-04-27T01:54:25.981Z,6.70
2023-04-27T01:59:29.617Z,6.60
2023-04-27T02:04:31.846Z,6.50
2023-04-27T02:09:34.018Z,6.50
2023-04-27T02:14:37.093Z,6.50
2023-04-27T02:19:39.119Z,6.50
2023-04-27T02:24:41.222Z,6.60
2023-04-27T02:29:43.230Z,6.60
2023-04-27T02:34:45.792Z,6.70
2023-04-27T02:39:47.888Z,6.80
2023-04-27T02:44:49.908Z,6.90
2023-04-27T02:49:53.478Z,7.00
2023-04-27T02:54:55.617Z,7.10
2023-04-27T02:59:57.745Z,7.10
2023-04-27T03:04:59.854Z,7.20
2023-04-27T03:10:01.808Z,7.30
2023-04-27T03:15:05.873Z,7.30
2023-04-27T03:20:09.968Z,7.40
2023-04-27T03:25:11.947Z,7.40
2023-04-27T03:30:14.161Z,7.40
2023-04-27T03:35:16.326Z,7.40
2023-04-27T03:40:20.461Z,7.50
2023-04-27T03:45:22.611Z,7.60
2023-04-27T03:55:27.352Z,7.70
2023-04-27T04:00:29.806Z,7.80
2023-04-27T04:10:34.213Z,7.90
2023-04-27T04:15:36.510Z,7.90
2023-04-27T04:20:38.973Z,8.00
2023-04-27T04:25:41.571Z,8.10
2023-04-27T04:30:43.654Z,8.10
2023-04-27T04:35:46.152Z,8.20
2023-04-27T04:40:48.513Z,8.30
2023-04-27T04:45:50.859Z,8.30
2023-04-27T04:50:52.861Z,8.40
2023-04-27T04:55:54.994Z,8.50
2023-04-27T05:05:59.394Z,8.70
2023-04-27T05:11:01.506Z,8.80
2023-04-27T05:16:07.258Z,8.90
2023-04-27T05:21:16.207Z,9.00
2023-04-27T05:26:18.620Z,9.20
2023-04-27T05:31:20.688Z,9.30
2023-04-27T05:36:22.768Z,9.50
2023-04-27T05:41:24.941Z,9.60
2023-04-27T05:51:29.500Z,9.90
2023-04-27T05:56:31.539Z,10.10
2023-04-27T06:01:33.491Z,10.30
2023-04-27T06:06:35.554Z,10.50
2023-04-27T06:11:37.666Z,10.80
2023-04-27T06:16:40.983Z,11.00
2023-04-27T06:21:43.478Z,11.20
2023-04-27T06:26:45.906Z,11.40
2023-04-27T06:31:47.916Z,11.50
2023-04-27T06:36:49.921Z,11.70
2023-04-27T06:41:51.921Z,11.90
2023-04-27T06:46:53.940Z,12.10
2023-04-27T06:51:56.020Z,12.30
2023-04-27T06:56:58.108Z,12.50
2023-04-27T07:02:00.511Z,12.70
2023-04-27T07:12:05.118Z,13.00
2023-04-27T07:17:07.110Z,13.10
2023-04-27T07:22:09.998Z,13.20
2023-04-27T07:27:12.087Z,13.20
2023-04-27T07:32:14.934Z,13.40
2023-04-27T07:37:17.568Z,13.40
2023-04-27T07:42:20.214Z,13.60
2023-04-27T07:52:24.743Z,14.00
2023-04-27T07:57:26.823Z,14.10
2023-04-27T08:02:31.666Z,14.30
2023-04-27T08:07:37.172Z,14.40
2023-04-27T08:12:43.386Z,14.60
2023-04-27T08:17:47.159Z,14.70
2023-04-27T08:22:50.930Z,14.90
2023-04-27T08:27:53.006Z,15.10
2023-04-27T08:32:55.058Z,15.20
2023-04-27T08:37:57.172Z,15.30
2023-04-27T08:43:00.399Z,15.50
2023-04-27T08:48:02.527Z,15.60
2023-04-27T08:53:04.672Z,15.70
2023-04-27T08:58:06.668Z,15.80
2023-04-27T09:03:24.883Z,15.90
2023-04-27T09:08:27.516Z,15.90
2023-04-27T09:13:34.924Z,16.00
2023-04-27T09:18:38.018Z,16.10
2023-04-27T09:23:44.570Z,16.30
2023-04-27T09:28:48.151Z,16.50
2023-04-27T09:38:52.988Z,17.00
2023-04-27T09:43:57.701Z,17.20
2023-04-27T09:49:01.154Z,17.40
2023-04-27T09:54:03.681Z,17.60
2023-04-27T09:59:13.861Z,17.80
2023-04-27T10:04:16.347Z,18.10
2023-04-27T10:09:23.650Z,18.40
2023-04-27T10:14:28.092Z,18.80
2023-04-27T10:19:30.315Z,19.10
2023-04-27T10:24:32.600Z,19.50
2023-04-27T10:29:35.293Z,19.90
2023-04-27T10:34:37.785Z,20.10
2023-04-27T10:39:48.591Z,20.20
2023-04-27T10:44:54.360Z,20.50
2023-04-27T10:49:56.384Z,20.70
2023-04-27T11:00:01.083Z,21.10
2023-04-27T11:05:07.665Z,21.30
2023-04-27T11:10:10.126Z,21.50
2023-04-27T11:15:12.766Z,21.80
2023-04-27T11:20:16.594Z,22.00
2023-04-27T11:25:27.050Z,22.30
2023-04-27T11:30:29.112Z,22.60
2023-04-27T11:35:34.651Z,22.80
2023-04-27T11:40:41.329Z,23.00
2023-04-27T11:45:46.279Z,23.10
2023-04-27T11:50:48.596Z,23.10
2023-04-27T11:55:52.403Z,23.30
2023-04-27T12:00:56.163Z,23.60
2023-04-27T12:06:07.230Z,23.90
2023-04-27T12:11:18.728Z,24.10
2023-04-27T12:16:22.490Z,24.30
2023-04-27T12:21:24.677Z,24.50
2023-04-27T12:26:26.790Z,24.60
2023-04-27T12:31:28.839Z,24.60
2023-04-27T12:36:31.819Z,24.80
2023-04-27T12:41:33.839Z,24.90
2023-04-27T12:46:35.917Z,25.00
2023-04-27T12:51:38.701Z,25.00
2023-04-27T12:56:41.939Z,25.00
2023-04-27T13:01:45.645Z,25.10
2023-04-27T13:06:47.859Z,25.20
2023-04-27T13:11:49.856Z,25.30
2023-04-27T13:16:52.118Z,25.50
2023-04-27T13:21:54.111Z,25.70
2023-04-27T13:26:56.163Z,25.80
2023-04-27T13:31:58.298Z,25.80
2023-04-27T13:37:00.388Z,25.50
2023-04-27T13:42:02.382Z,25.60
2023-04-27T13:47:05.071Z,25.70
2023-04-27T13:52:07.276Z,26.00
2023-04-27T13:57:09.310Z,26.10
2023-04-27T14:02:11.333Z,26.10
2023-04-27T14:07:13.416Z,26.30
2023-04-27T14:12:15.393Z,26.50
2023-04-27T14:17:17.465Z,26.70
2023-04-27T14:22:19.430Z,27.10
2023-04-27T14:27:21.465Z,28.00
2023-04-27T14:32:23.493Z,28.50
2023-04-27T14:37:25.464Z,29.60
2023-04-27T14:42:27.431Z,30.10
2023-04-27T14:47:29.561Z,30.50
2023-04-27T14:52:32.384Z,30.40
2023-04-27T14:57:35.044Z,29.90
2023-04-27T15:02:38.018Z,29.50
2023-04-27T15:07:40.426Z,28.90
2023-04-27T15:17:44.993Z,27.80
2023-04-27T15:22:47.227Z,27.50
2023-04-27T15:27:49.625Z,27.20
2023-04-27T15:32:51.680Z,26.90
2023-04-27T15:37:53.761Z,26.50
2023-04-27T15:42:55.788Z,26.50
2023-04-27T15:47:57.932Z,26.50
2023-04-27T15:52:59.990Z,26.50
2023-04-27T15:58:02.129Z,26.60
2023-04-27T16:03:04.433Z,27.10
2023-04-27T16:08:06.694Z,27.40
2023-04-27T16:13:08.727Z,27.30
2023-04-27T16:18:10.962Z,27.30
2023-04-27T16:23:13.026Z,27.40
2023-04-27T16:28:15.179Z,27.70
2023-04-27T16:33:19.162Z,28.10
2023-04-27T16:38:21.263Z,28.40
2023-04-27T16:43:23.301Z,28.20
2023-04-27T16:48:25.404Z,27.70
2023-04-27T16:53:27.578Z,27.20
2023-04-27T16:58:30.041Z,26.60
2023-04-27T17:03:33.272Z,26.10
2023-04-27T17:08:35.439Z,25.70
2023-04-27T17:13:37.569Z,25.50
2023-04-27T17:18:39.668Z,25.10
2023-04-27T17:23:41.739Z,24.70
2023-04-27T17:28:43.743Z,24.40
2023-04-27T17:33:45.805Z,24.20
2023-04-27T17:38:48.634Z,23.90
2023-04-27T17:43:50.951Z,23.70
2023-04-27T17:48:52.978Z,23.50
2023-04-27T17:53:54.981Z,23.20
2023-04-27T17:58:56.985Z,22.90
2023-04-27T18:04:02.986Z,22.50
2023-04-27T18:09:06.678Z,22.20
2023-04-27T18:14:08.743Z,21.80
2023-04-27T18:19:11.001Z,21.50
2023-04-27T18:24:13.047Z,21.20
2023-04-27T18:29:15.346Z,20.80
2023-04-27T18:34:17.804Z,20.50
2023-04-27T18:39:20.479Z,20.20
2023-04-27T18:44:22.557Z,20.00
2023-04-27T18:49:24.589Z,19.70
2023-04-27T18:54:26.638Z,19.40
2023-04-27T18:59:28.655Z,19.20
2023-04-27T19:04:31.347Z,19.00
2023-04-27T19:09:33.587Z,18.80
2023-04-27T19:14:36.537Z,18.60
2023-04-27T19:19:38.576Z,18.40
2023-04-27T19:24:40.668Z,18.20
2023-04-27T19:29:50.228Z,18.10
2023-04-27T19:34:52.771Z,17.90
2023-04-27T19:39:54.815Z,17.80
2023-04-27T19:44:57.073Z,17.70
2023-04-27T19:49:59.105Z,17.50
2023-04-27T19:55:01.298Z,17.30
2023-04-27T20:00:05.176Z,17.20
2023-04-27T20:05:15.461Z,17.00
2023-04-27T20:10:17.968Z,16.90
2023-04-27T20:15:20.329Z,16.80
2023-04-27T20:20:22.417Z,16.80
2023-04-27T20:25:25.598Z,16.70
2023-04-27T20:30:28.524Z,16.60
2023-04-27T20:35:31.280Z,16.50
2023-04-27T20:40:33.326Z,16.40
2023-04-27T20:45:35.531Z,16.30
2023-04-27T20:50:38.089Z,16.20
2023-04-27T20:55:40.922Z,16.10
2023-04-27T21:00:43.025Z,16.00
2023-04-27T21:10:47.957Z,15.90
2023-04-27T21:20:52.392Z,15.80
2023-04-27T21:25:54.479Z,15.70
2023-04-27T21:30:56.579Z,15.60
2023-04-27T21:35:59.456Z,15.60
2023-04-27T21:41:01.516Z,15.50
2023-04-27T21:46:03.789Z,15.50
2023-04-27T21:51:06.044Z,15.40
2023-04-27T21:56:08.153Z,15.40
2023-04-27T22:01:11.215Z,15.30
2023-04-27T22:06:13.255Z,15.30
2023-04-27T22:11:15.220Z,15.30
2023-04-27T22:16:17.298Z,15.30
2023-04-27T22:21:19.329Z,15.30
2023-04-27T22:26:21.375Z,15.30
2023-04-27T22:31:23.465Z,15.30
2023-04-27T22:36:25.794Z,15.30
2023-04-27T22:41:27.831Z,15.30
2023-04-27T22:46:29.911Z,15.30
2023-04-27T22:51:32.760Z,15.30
2023-04-27T22:56:34.831Z,15.30
2023-04-27T23:06:39.387Z,15.30
2023-04-27T23:11:41.512Z,15.30
2023-04-27T23:16:47.170Z,15.30
2023-04-27T23:21:49.194Z,15.30
2023-04-27T23:26:51.181Z,15.30
2023-04-27T23:31:53.158Z,15.30
2023-04-27T23:36:55.175Z,15.20
2023-04-27T23:41:58.049Z,15.20
2023-04-27T23:47:00.139Z,15.20
2023-04-27T23:52:02.134Z,15.10
2023-04-27T23:57:04.164Z,15.10
